sensor_id;sensor_type;location;lat;lon;timestamp;P1;durP1;ratioP1;P2;durP2;ratioP2
68273;SDS011;55104;47.356;19.448;2022-07-06T00:00:56;9.65;;;5.93;;
68273;SDS011;55104;47.356;19.448;2022-07-06T00:03:58;8.50;;;5.43;;
68273;SDS011;55104;47.356;19.448;2022-07-06T00:07:01;10.75;;;5.50;;
68273;SDS011;55104;47.356;19.448;2022-07-06T00:10:03;9.13;;;5.75;;
68273;SDS011;55104;47.356;19.448;2022-07-06T00:13:14;9.68;;;6.20;;
68273;SDS011;55104;47.356;19.448;2022-07-06T00:16:16;9.02;;;5.82;;
68273;SDS011;55104;47.356;19.448;2022-07-06T00:19:19;9.97;;;6.00;;
68273;SDS011;55104;47.356;19.448;2022-07-06T00:22:21;9.52;;;5.97;;
68273;SDS011;55104;47.356;19.448;2022-07-06T00:25:23;10.02;;;6.88;;
68273;SDS011;55104;47.356;19.448;2022-07-06T00:28:25;10.32;;;6.60;;
68273;SDS011;55104;47.356;19.448;2022-07-06T00:31:27;11.50;;;6.22;;
68273;SDS011;55104;47.356;19.448;2022-07-06T00:34:29;9.57;;;6.33;;
68273;SDS011;55104;47.356;19.448;2022-07-06T00:37:31;10.77;;;6.65;;
68273;SDS011;55104;47.356;19.448;2022-07-06T00:40:33;11.55;;;6.80;;
68273;SDS011;55104;47.356;19.448;2022-07-06T00:46:54;11.98;;;6.80;;
68273;SDS011;55104;47.356;19.448;2022-07-06T00:49:56;9.57;;;6.20;;
68273;SDS011;55104;47.356;19.448;2022-07-06T00:53:17;10.88;;;6.20;;
68273;SDS011;55104;47.356;19.448;2022-07-06T00:56:18;12.00;;;6.30;;
68273;SDS011;55104;47.356;19.448;2022-07-06T00:59:20;9.25;;;6.35;;
68273;SDS011;55104;47.356;19.448;2022-07-06T01:02:24;10.77;;;6.07;;
68273;SDS011;55104;47.356;19.448;2022-07-06T01:05:27;12.50;;;7.17;;
68273;SDS011;55104;47.356;19.448;2022-07-06T01:08:30;11.48;;;6.35;;
68273;SDS011;55104;47.356;19.448;2022-07-06T01:11:32;11.43;;;6.55;;
68273;SDS011;55104;47.356;19.448;2022-07-06T01:14:34;15.43;;;6.55;;
68273;SDS011;55104;47.356;19.448;2022-07-06T01:17:38;11.40;;;6.35;;
68273;SDS011;55104;47.356;19.448;2022-07-06T01:20:41;11.10;;;6.37;;
68273;SDS011;55104;47.356;19.448;2022-07-06T01:23:45;11.52;;;7.72;;
68273;SDS011;55104;47.356;19.448;2022-07-06T01:26:48;12.23;;;6.90;;
68273;SDS011;55104;47.356;19.448;2022-07-06T01:29:50;10.52;;;6.65;;
68273;SDS011;55104;47.356;19.448;2022-07-06T01:32:52;10.93;;;7.00;;
68273;SDS011;55104;47.356;19.448;2022-07-06T01:35:54;9.57;;;6.83;;
68273;SDS011;55104;47.356;19.448;2022-07-06T01:38:56;11.98;;;7.07;;
68273;SDS011;55104;47.356;19.448;2022-07-06T01:42:00;11.18;;;7.03;;
68273;SDS011;55104;47.356;19.448;2022-07-06T01:45:03;13.68;;;6.63;;
68273;SDS011;55104;47.356;19.448;2022-07-06T01:48:06;11.73;;;6.57;;
68273;SDS011;55104;47.356;19.448;2022-07-06T01:51:08;10.37;;;6.43;;
68273;SDS011;55104;47.356;19.448;2022-07-06T01:54:12;10.15;;;6.82;;
68273;SDS011;55104;47.356;19.448;2022-07-06T01:57:15;11.43;;;6.80;;
68273;SDS011;55104;47.356;19.448;2022-07-06T02:00:17;9.57;;;6.68;;
68273;SDS011;55104;47.356;19.448;2022-07-06T02:03:23;10.02;;;7.00;;
68273;SDS011;55104;47.356;19.448;2022-07-06T02:06:25;10.03;;;6.57;;
68273;SDS011;55104;47.356;19.448;2022-07-06T02:09:27;11.32;;;6.90;;
68273;SDS011;55104;47.356;19.448;2022-07-06T02:12:29;11.35;;;6.55;;
68273;SDS011;55104;47.356;19.448;2022-07-06T02:15:31;9.65;;;7.00;;
68273;SDS011;55104;47.356;19.448;2022-07-06T02:18:33;10.63;;;6.75;;
68273;SDS011;55104;47.356;19.448;2022-07-06T02:21:35;11.37;;;6.67;;
68273;SDS011;55104;47.356;19.448;2022-07-06T02:24:37;9.90;;;6.70;;
68273;SDS011;55104;47.356;19.448;2022-07-06T02:27:39;12.15;;;6.50;;
68273;SDS011;55104;47.356;19.448;2022-07-06T02:30:43;11.15;;;6.65;;
68273;SDS011;55104;47.356;19.448;2022-07-06T02:33:46;11.13;;;7.20;;
68273;SDS011;55104;47.356;19.448;2022-07-06T02:36:49;10.60;;;6.43;;
68273;SDS011;55104;47.356;19.448;2022-07-06T02:39:52;9.65;;;7.10;;
68273;SDS011;55104;47.356;19.448;2022-07-06T02:42:54;12.20;;;7.18;;
68273;SDS011;55104;47.356;19.448;2022-07-06T02:45:56;10.05;;;6.95;;
68273;SDS011;55104;47.356;19.448;2022-07-06T02:48:59;9.55;;;6.80;;
68273;SDS011;55104;47.356;19.448;2022-07-06T02:52:01;9.93;;;7.17;;
68273;SDS011;55104;47.356;19.448;2022-07-06T02:55:06;10.13;;;6.72;;
68273;SDS011;55104;47.356;19.448;2022-07-06T02:58:08;9.73;;;6.53;;
68273;SDS011;55104;47.356;19.448;2022-07-06T03:01:11;10.00;;;6.75;;
68273;SDS011;55104;47.356;19.448;2022-07-06T03:04:13;10.02;;;6.68;;
68273;SDS011;55104;47.356;19.448;2022-07-06T03:07:16;9.53;;;6.70;;
68273;SDS011;55104;47.356;19.448;2022-07-06T03:10:19;12.98;;;6.72;;
68273;SDS011;55104;47.356;19.448;2022-07-06T03:13:21;10.48;;;6.35;;
68273;SDS011;55104;47.356;19.448;2022-07-06T03:16:24;10.13;;;6.57;;
68273;SDS011;55104;47.356;19.448;2022-07-06T03:19:26;9.95;;;6.95;;
68273;SDS011;55104;47.356;19.448;2022-07-06T03:22:28;10.30;;;6.90;;
68273;SDS011;55104;47.356;19.448;2022-07-06T03:25:31;10.63;;;6.38;;
68273;SDS011;55104;47.356;19.448;2022-07-06T03:28:34;10.07;;;6.78;;
68273;SDS011;55104;47.356;19.448;2022-07-06T03:31:36;10.35;;;6.25;;
68273;SDS011;55104;47.356;19.448;2022-07-06T03:34:39;10.48;;;6.30;;
68273;SDS011;55104;47.356;19.448;2022-07-06T03:37:41;9.40;;;6.37;;
68273;SDS011;55104;47.356;19.448;2022-07-06T03:40:44;10.52;;;7.05;;
68273;SDS011;55104;47.356;19.448;2022-07-06T03:43:46;10.75;;;6.50;;
68273;SDS011;55104;47.356;19.448;2022-07-06T03:46:48;9.50;;;6.50;;
68273;SDS011;55104;47.356;19.448;2022-07-06T03:49:52;11.45;;;6.88;;
68273;SDS011;55104;47.356;19.448;2022-07-06T03:52:54;9.97;;;6.73;;
68273;SDS011;55104;47.356;19.448;2022-07-06T03:55:56;13.60;;;6.28;;
68273;SDS011;55104;47.356;19.448;2022-07-06T03:59:17;12.40;;;7.63;;
68273;SDS011;55104;47.356;19.448;2022-07-06T04:02:19;10.20;;;6.65;;
68273;SDS011;55104;47.356;19.448;2022-07-06T04:05:24;13.70;;;7.28;;
68273;SDS011;55104;47.356;19.448;2022-07-06T04:08:28;10.67;;;6.77;;
68273;SDS011;55104;47.356;19.448;2022-07-06T04:11:32;8.73;;;6.20;;
68273;SDS011;55104;47.356;19.448;2022-07-06T04:14:34;11.65;;;6.90;;
68273;SDS011;55104;47.356;19.448;2022-07-06T04:17:38;11.10;;;6.60;;
68273;SDS011;55104;47.356;19.448;2022-07-06T04:21:02;10.70;;;7.07;;
68273;SDS011;55104;47.356;19.448;2022-07-06T04:24:06;10.20;;;6.93;;
68273;SDS011;55104;47.356;19.448;2022-07-06T04:27:09;11.52;;;6.97;;
68273;SDS011;55104;47.356;19.448;2022-07-06T04:30:11;12.70;;;6.85;;
68273;SDS011;55104;47.356;19.448;2022-07-06T04:33:16;11.27;;;7.15;;
68273;SDS011;55104;47.356;19.448;2022-07-06T04:36:19;9.98;;;6.68;;
68273;SDS011;55104;47.356;19.448;2022-07-06T04:39:21;9.40;;;6.53;;
68273;SDS011;55104;47.356;19.448;2022-07-06T04:42:24;12.25;;;7.10;;
68273;SDS011;55104;47.356;19.448;2022-07-06T04:45:30;11.15;;;7.20;;
68273;SDS011;55104;47.356;19.448;2022-07-06T04:48:32;11.38;;;6.40;;
68273;SDS011;55104;47.356;19.448;2022-07-06T04:51:38;12.55;;;7.30;;
68273;SDS011;55104;47.356;19.448;2022-07-06T04:54:41;9.33;;;6.30;;
68273;SDS011;55104;47.356;19.448;2022-07-06T04:57:43;11.35;;;6.55;;
68273;SDS011;55104;47.356;19.448;2022-07-06T05:00:47;12.95;;;6.75;;
68273;SDS011;55104;47.356;19.448;2022-07-06T05:03:49;9.50;;;7.10;;
68273;SDS011;55104;47.356;19.448;2022-07-06T05:06:54;9.82;;;6.50;;
68273;SDS011;55104;47.356;19.448;2022-07-06T05:09:56;11.27;;;6.17;;
68273;SDS011;55104;47.356;19.448;2022-07-06T05:12:59;10.18;;;6.93;;
68273;SDS011;55104;47.356;19.448;2022-07-06T05:16:02;10.27;;;6.15;;
68273;SDS011;55104;47.356;19.448;2022-07-06T05:19:05;8.50;;;5.57;;
68273;SDS011;55104;47.356;19.448;2022-07-06T05:22:08;9.38;;;5.40;;
68273;SDS011;55104;47.356;19.448;2022-07-06T05:25:10;9.00;;;4.97;;
68273;SDS011;55104;47.356;19.448;2022-07-06T05:28:12;8.07;;;4.03;;
68273;SDS011;55104;47.356;19.448;2022-07-06T05:31:14;7.57;;;4.32;;
68273;SDS011;55104;47.356;19.448;2022-07-06T05:34:17;8.20;;;3.83;;
68273;SDS011;55104;47.356;19.448;2022-07-06T05:37:20;6.80;;;3.90;;
68273;SDS011;55104;47.356;19.448;2022-07-06T05:40:22;7.30;;;3.80;;
68273;SDS011;55104;47.356;19.448;2022-07-06T05:43:26;6.93;;;3.15;;
68273;SDS011;55104;47.356;19.448;2022-07-06T05:46:30;7.97;;;2.88;;
68273;SDS011;55104;47.356;19.448;2022-07-06T05:49:32;5.55;;;2.50;;
68273;SDS011;55104;47.356;19.448;2022-07-06T05:53:02;7.07;;;2.92;;
68273;SDS011;55104;47.356;19.448;2022-07-06T05:56:19;5.17;;;2.27;;
68273;SDS011;55104;47.356;19.448;2022-07-06T05:59:21;5.07;;;2.30;;
68273;SDS011;55104;47.356;19.448;2022-07-06T06:02:23;5.85;;;2.30;;
68273;SDS011;55104;47.356;19.448;2022-07-06T06:05:25;5.20;;;2.10;;
68273;SDS011;55104;47.356;19.448;2022-07-06T06:08:32;8.15;;;2.47;;
68273;SDS011;55104;47.356;19.448;2022-07-06T06:11:35;4.97;;;1.97;;
68273;SDS011;55104;47.356;19.448;2022-07-06T06:14:37;7.07;;;2.30;;
68273;SDS011;55104;47.356;19.448;2022-07-06T06:17:39;5.70;;;2.20;;
68273;SDS011;55104;47.356;19.448;2022-07-06T06:20:41;6.15;;;2.33;;
68273;SDS011;55104;47.356;19.448;2022-07-06T06:23:43;5.50;;;2.47;;
68273;SDS011;55104;47.356;19.448;2022-07-06T06:26:45;5.40;;;2.20;;
68273;SDS011;55104;47.356;19.448;2022-07-06T06:29:47;5.72;;;2.00;;
68273;SDS011;55104;47.356;19.448;2022-07-06T06:32:49;4.97;;;2.13;;
68273;SDS011;55104;47.356;19.448;2022-07-06T06:35:51;4.25;;;1.52;;
68273;SDS011;55104;47.356;19.448;2022-07-06T06:38:54;5.60;;;1.65;;
68273;SDS011;55104;47.356;19.448;2022-07-06T06:41:57;3.67;;;1.33;;
68273;SDS011;55104;47.356;19.448;2022-07-06T06:45:07;5.32;;;1.73;;
68273;SDS011;55104;47.356;19.448;2022-07-06T06:48:10;5.60;;;1.60;;
68273;SDS011;55104;47.356;19.448;2022-07-06T06:51:32;3.85;;;1.35;;
68273;SDS011;55104;47.356;19.448;2022-07-06T06:54:34;5.35;;;1.60;;
68273;SDS011;55104;47.356;19.448;2022-07-06T06:57:37;4.57;;;1.40;;
68273;SDS011;55104;47.356;19.448;2022-07-06T07:00:39;5.22;;;1.23;;
68273;SDS011;55104;47.356;19.448;2022-07-06T07:03:41;4.97;;;1.70;;
68273;SDS011;55104;47.356;19.448;2022-07-06T07:06:43;4.30;;;1.70;;
68273;SDS011;55104;47.356;19.448;2022-07-06T07:09:45;7.32;;;2.20;;
68273;SDS011;55104;47.356;19.448;2022-07-06T07:12:47;3.87;;;1.40;;
68273;SDS011;55104;47.356;19.448;2022-07-06T07:15:49;4.65;;;1.65;;
68273;SDS011;55104;47.356;19.448;2022-07-06T07:18:51;5.35;;;1.83;;
68273;SDS011;55104;47.356;19.448;2022-07-06T07:21:54;3.85;;;1.55;;
68273;SDS011;55104;47.356;19.448;2022-07-06T07:24:56;3.80;;;1.40;;
68273;SDS011;55104;47.356;19.448;2022-07-06T07:28:00;4.40;;;1.30;;
68273;SDS011;55104;47.356;19.448;2022-07-06T07:31:02;3.67;;;1.27;;
68273;SDS011;55104;47.356;19.448;2022-07-06T07:34:05;5.60;;;1.60;;
68273;SDS011;55104;47.356;19.448;2022-07-06T07:37:07;4.35;;;1.60;;
68273;SDS011;55104;47.356;19.448;2022-07-06T07:40:09;4.57;;;1.50;;
68273;SDS011;55104;47.356;19.448;2022-07-06T07:43:12;4.60;;;1.30;;
68273;SDS011;55104;47.356;19.448;2022-07-06T07:46:13;3.83;;;1.30;;
68273;SDS011;55104;47.356;19.448;2022-07-06T07:49:16;4.20;;;1.60;;
68273;SDS011;55104;47.356;19.448;2022-07-06T07:52:22;5.47;;;1.50;;
68273;SDS011;55104;47.356;19.448;2022-07-06T07:55:24;4.32;;;1.50;;
68273;SDS011;55104;47.356;19.448;2022-07-06T07:58:43;4.63;;;1.60;;
68273;SDS011;55104;47.356;19.448;2022-07-06T08:01:47;3.75;;;1.55;;
68273;SDS011;55104;47.356;19.448;2022-07-06T08:04:49;6.85;;;1.85;;
68273;SDS011;55104;47.356;19.448;2022-07-06T08:07:52;5.32;;;1.88;;
68273;SDS011;55104;47.356;19.448;2022-07-06T08:10:54;6.20;;;1.50;;
68273;SDS011;55104;47.356;19.448;2022-07-06T08:14:16;4.77;;;1.30;;
68273;SDS011;55104;47.356;19.448;2022-07-06T08:17:18;3.92;;;1.38;;
68273;SDS011;55104;47.356;19.448;2022-07-06T08:20:20;4.20;;;1.55;;
68273;SDS011;55104;47.356;19.448;2022-07-06T08:23:22;4.35;;;1.60;;
68273;SDS011;55104;47.356;19.448;2022-07-06T08:26:26;3.88;;;1.63;;
68273;SDS011;55104;47.356;19.448;2022-07-06T08:29:28;7.00;;;1.90;;
68273;SDS011;55104;47.356;19.448;2022-07-06T08:32:31;6.55;;;2.08;;
68273;SDS011;55104;47.356;19.448;2022-07-06T08:35:53;4.50;;;2.00;;
68273;SDS011;55104;47.356;19.448;2022-07-06T08:38:55;5.95;;;2.30;;
68273;SDS011;55104;47.356;19.448;2022-07-06T08:41:57;5.00;;;2.15;;
68273;SDS011;55104;47.356;19.448;2022-07-06T08:45:01;5.63;;;2.20;;
68273;SDS011;55104;47.356;19.448;2022-07-06T08:48:06;6.25;;;2.40;;
68273;SDS011;55104;47.356;19.448;2022-07-06T08:51:08;6.22;;;2.40;;
68273;SDS011;55104;47.356;19.448;2022-07-06T08:54:11;7.18;;;2.30;;
68273;SDS011;55104;47.356;19.448;2022-07-06T08:57:14;5.05;;;2.30;;
68273;SDS011;55104;47.356;19.448;2022-07-06T09:00:17;5.47;;;2.07;;
68273;SDS011;55104;47.356;19.448;2022-07-06T09:03:19;6.50;;;2.40;;
68273;SDS011;55104;47.356;19.448;2022-07-06T09:06:23;5.80;;;2.38;;
68273;SDS011;55104;47.356;19.448;2022-07-06T09:09:26;4.85;;;2.20;;
68273;SDS011;55104;47.356;19.448;2022-07-06T09:12:32;6.57;;;2.22;;
68273;SDS011;55104;47.356;19.448;2022-07-06T09:15:35;6.27;;;2.87;;
68273;SDS011;55104;47.356;19.448;2022-07-06T09:18:43;5.22;;;2.55;;
68273;SDS011;55104;47.356;19.448;2022-07-06T09:21:46;8.07;;;2.22;;
68273;SDS011;55104;47.356;19.448;2022-07-06T09:24:49;5.10;;;2.33;;
68273;SDS011;55104;47.356;19.448;2022-07-06T09:27:51;6.30;;;2.42;;
68273;SDS011;55104;47.356;19.448;2022-07-06T09:30:56;4.70;;;2.20;;
68273;SDS011;55104;47.356;19.448;2022-07-06T09:34:16;4.93;;;2.20;;
68273;SDS011;55104;47.356;19.448;2022-07-06T09:37:18;6.13;;;2.28;;
68273;SDS011;55104;47.356;19.448;2022-07-06T09:40:27;5.30;;;2.15;;
68273;SDS011;55104;47.356;19.448;2022-07-06T09:43:29;5.22;;;1.95;;
68273;SDS011;55104;47.356;19.448;2022-07-06T09:46:42;5.40;;;2.00;;
68273;SDS011;55104;47.356;19.448;2022-07-06T09:49:45;4.55;;;1.85;;
68273;SDS011;55104;47.356;19.448;2022-07-06T09:52:54;4.93;;;2.05;;
68273;SDS011;55104;47.356;19.448;2022-07-06T09:55:57;5.88;;;2.30;;
68273;SDS011;55104;47.356;19.448;2022-07-06T09:59:10;6.00;;;2.28;;
68273;SDS011;55104;47.356;19.448;2022-07-06T10:02:16;6.67;;;2.27;;
68273;SDS011;55104;47.356;19.448;2022-07-06T10:05:18;5.03;;;1.92;;
68273;SDS011;55104;47.356;19.448;2022-07-06T10:08:28;4.57;;;1.95;;
68273;SDS011;55104;47.356;19.448;2022-07-06T10:11:37;6.30;;;2.22;;
68273;SDS011;55104;47.356;19.448;2022-07-06T10:14:40;5.60;;;2.13;;
68273;SDS011;55104;47.356;19.448;2022-07-06T10:17:50;6.13;;;1.93;;
68273;SDS011;55104;47.356;19.448;2022-07-06T10:20:53;5.65;;;2.03;;
68273;SDS011;55104;47.356;19.448;2022-07-06T10:23:55;7.88;;;2.00;;
68273;SDS011;55104;47.356;19.448;2022-07-06T10:27:01;6.88;;;1.98;;
68273;SDS011;55104;47.356;19.448;2022-07-06T10:30:04;5.18;;;1.98;;
68273;SDS011;55104;47.356;19.448;2022-07-06T10:33:07;4.13;;;1.60;;
68273;SDS011;55104;47.356;19.448;2022-07-06T10:36:10;7.97;;;2.20;;
68273;SDS011;55104;47.356;19.448;2022-07-06T10:39:14;6.53;;;2.03;;
68273;SDS011;55104;47.356;19.448;2022-07-06T10:45:55;4.50;;;1.70;;
68273;SDS011;55104;47.356;19.448;2022-07-06T10:48:58;4.67;;;1.90;;
68273;SDS011;55104;47.356;19.448;2022-07-06T10:52:00;4.50;;;1.77;;
68273;SDS011;55104;47.356;19.448;2022-07-06T10:55:02;5.05;;;2.22;;
68273;SDS011;55104;47.356;19.448;2022-07-06T10:58:04;5.35;;;1.90;;
68273;SDS011;55104;47.356;19.448;2022-07-06T11:01:10;5.18;;;2.30;;
68273;SDS011;55104;47.356;19.448;2022-07-06T11:04:13;5.07;;;2.20;;
68273;SDS011;55104;47.356;19.448;2022-07-06T11:07:17;5.47;;;2.05;;
68273;SDS011;55104;47.356;19.448;2022-07-06T11:10:22;6.78;;;2.22;;
68273;SDS011;55104;47.356;19.448;2022-07-06T11:13:25;7.20;;;2.15;;
68273;SDS011;55104;47.356;19.448;2022-07-06T11:16:30;5.95;;;2.53;;
68273;SDS011;55104;47.356;19.448;2022-07-06T11:19:38;5.70;;;2.40;;
68273;SDS011;55104;47.356;19.448;2022-07-06T11:22:56;7.82;;;2.20;;
68273;SDS011;55104;47.356;19.448;2022-07-06T11:25:58;6.53;;;2.60;;
68273;SDS011;55104;47.356;19.448;2022-07-06T11:29:00;5.53;;;2.42;;
68273;SDS011;55104;47.356;19.448;2022-07-06T11:32:04;5.70;;;2.30;;
68273;SDS011;55104;47.356;19.448;2022-07-06T11:35:10;5.10;;;2.03;;
68273;SDS011;55104;47.356;19.448;2022-07-06T11:38:25;5.65;;;2.40;;
68273;SDS011;55104;47.356;19.448;2022-07-06T11:41:27;5.55;;;2.50;;
68273;SDS011;55104;47.356;19.448;2022-07-06T11:44:29;5.35;;;2.15;;
68273;SDS011;55104;47.356;19.448;2022-07-06T11:47:32;6.20;;;2.40;;
68273;SDS011;55104;47.356;19.448;2022-07-06T11:50:34;5.43;;;2.00;;
68273;SDS011;55104;47.356;19.448;2022-07-06T11:53:36;6.18;;;2.50;;
68273;SDS011;55104;47.356;19.448;2022-07-06T11:56:51;5.47;;;2.38;;
68273;SDS011;55104;47.356;19.448;2022-07-06T11:59:57;5.20;;;2.38;;
68273;SDS011;55104;47.356;19.448;2022-07-06T12:03:00;6.03;;;2.33;;
68273;SDS011;55104;47.356;19.448;2022-07-06T12:06:06;5.93;;;2.30;;
68273;SDS011;55104;47.356;19.448;2022-07-06T12:09:15;5.75;;;2.50;;
68273;SDS011;55104;47.356;19.448;2022-07-06T12:12:18;6.70;;;2.58;;
68273;SDS011;55104;47.356;19.448;2022-07-06T12:15:27;5.40;;;2.20;;
68273;SDS011;55104;47.356;19.448;2022-07-06T12:18:39;7.50;;;2.47;;
68273;SDS011;55104;47.356;19.448;2022-07-06T12:21:48;6.37;;;2.37;;
68273;SDS011;55104;47.356;19.448;2022-07-06T12:24:51;5.88;;;2.40;;
68273;SDS011;55104;47.356;19.448;2022-07-06T12:27:53;5.60;;;2.40;;
68273;SDS011;55104;47.356;19.448;2022-07-06T12:30:55;7.88;;;2.40;;
68273;SDS011;55104;47.356;19.448;2022-07-06T12:33:57;5.55;;;2.22;;
68273;SDS011;55104;47.356;19.448;2022-07-06T12:37:03;6.13;;;2.20;;
68273;SDS011;55104;47.356;19.448;2022-07-06T12:40:14;6.70;;;2.13;;
68273;SDS011;55104;47.356;19.448;2022-07-06T12:43:35;5.53;;;2.45;;
68273;SDS011;55104;47.356;19.448;2022-07-06T12:46:39;5.88;;;2.10;;
68273;SDS011;55104;47.356;19.448;2022-07-06T12:49:42;5.38;;;2.25;;
68273;SDS011;55104;47.356;19.448;2022-07-06T12:52:44;5.47;;;2.20;;
68273;SDS011;55104;47.356;19.448;2022-07-06T12:55:46;5.75;;;2.30;;
68273;SDS011;55104;47.356;19.448;2022-07-06T12:59:01;7.55;;;3.05;;
68273;SDS011;55104;47.356;19.448;2022-07-06T13:02:04;9.73;;;3.10;;
68273;SDS011;55104;47.356;19.448;2022-07-06T13:05:08;6.57;;;2.55;;
68273;SDS011;55104;47.356;19.448;2022-07-06T13:08:12;6.10;;;2.37;;
68273;SDS011;55104;47.356;19.448;2022-07-06T13:11:14;6.05;;;2.17;;
68273;SDS011;55104;47.356;19.448;2022-07-06T13:14:17;4.90;;;2.15;;
68273;SDS011;55104;47.356;19.448;2022-07-06T13:17:19;6.10;;;2.13;;
68273;SDS011;55104;47.356;19.448;2022-07-06T13:20:22;7.97;;;2.50;;
68273;SDS011;55104;47.356;19.448;2022-07-06T13:23:24;6.13;;;2.20;;
68273;SDS011;55104;47.356;19.448;2022-07-06T13:26:27;6.78;;;2.78;;
68273;SDS011;55104;47.356;19.448;2022-07-06T13:29:29;7.55;;;2.72;;
68273;SDS011;55104;47.356;19.448;2022-07-06T13:32:31;7.50;;;2.45;;
68273;SDS011;55104;47.356;19.448;2022-07-06T13:35:34;8.32;;;2.70;;
68273;SDS011;55104;47.356;19.448;2022-07-06T13:38:36;6.90;;;2.80;;
68273;SDS011;55104;47.356;19.448;2022-07-06T13:41:38;6.45;;;2.65;;
68273;SDS011;55104;47.356;19.448;2022-07-06T13:44:40;5.80;;;2.50;;
68273;SDS011;55104;47.356;19.448;2022-07-06T13:47:42;6.90;;;2.70;;
68273;SDS011;55104;47.356;19.448;2022-07-06T13:50:44;7.97;;;3.03;;
68273;SDS011;55104;47.356;19.448;2022-07-06T13:53:46;9.90;;;3.03;;
68273;SDS011;55104;47.356;19.448;2022-07-06T13:56:48;6.75;;;2.90;;
68273;SDS011;55104;47.356;19.448;2022-07-06T13:59:51;6.50;;;2.95;;
68273;SDS011;55104;47.356;19.448;2022-07-06T14:02:53;6.72;;;3.05;;
68273;SDS011;55104;47.356;19.448;2022-07-06T14:05:56;7.10;;;3.05;;
68273;SDS011;55104;47.356;19.448;2022-07-06T14:08:59;9.27;;;3.00;;
68273;SDS011;55104;47.356;19.448;2022-07-06T14:12:02;7.45;;;2.90;;
68273;SDS011;55104;47.356;19.448;2022-07-06T14:15:04;9.00;;;3.42;;
68273;SDS011;55104;47.356;19.448;2022-07-06T14:18:07;8.05;;;2.67;;
68273;SDS011;55104;47.356;19.448;2022-07-06T14:21:09;9.63;;;2.60;;
68273;SDS011;55104;47.356;19.448;2022-07-06T14:24:12;6.73;;;3.47;;
68273;SDS011;55104;47.356;19.448;2022-07-06T14:27:14;6.65;;;2.78;;
68273;SDS011;55104;47.356;19.448;2022-07-06T14:30:16;6.13;;;3.00;;
68273;SDS011;55104;47.356;19.448;2022-07-06T14:33:18;7.53;;;2.80;;
68273;SDS011;55104;47.356;19.448;2022-07-06T14:36:21;8.65;;;3.00;;
68273;SDS011;55104;47.356;19.448;2022-07-06T14:39:23;7.93;;;2.67;;
68273;SDS011;55104;47.356;19.448;2022-07-06T14:42:25;6.80;;;3.15;;
68273;SDS011;55104;47.356;19.448;2022-07-06T14:45:27;7.95;;;3.13;;
68273;SDS011;55104;47.356;19.448;2022-07-06T14:48:29;7.70;;;3.20;;
68273;SDS011;55104;47.356;19.448;2022-07-06T14:51:31;6.00;;;2.90;;
68273;SDS011;55104;47.356;19.448;2022-07-06T14:54:33;9.73;;;3.40;;
68273;SDS011;55104;47.356;19.448;2022-07-06T14:57:35;6.05;;;3.08;;
68273;SDS011;55104;47.356;19.448;2022-07-06T15:00:37;8.60;;;3.40;;
68273;SDS011;55104;47.356;19.448;2022-07-06T15:03:39;7.13;;;3.00;;
68273;SDS011;55104;47.356;19.448;2022-07-06T15:06:41;8.23;;;3.10;;
68273;SDS011;55104;47.356;19.448;2022-07-06T15:09:55;6.60;;;3.23;;
68273;SDS011;55104;47.356;19.448;2022-07-06T15:12:58;6.90;;;3.00;;
68273;SDS011;55104;47.356;19.448;2022-07-06T15:16:00;8.27;;;2.95;;
68273;SDS011;55104;47.356;19.448;2022-07-06T15:19:02;7.60;;;3.00;;
68273;SDS011;55104;47.356;19.448;2022-07-06T15:22:04;5.97;;;2.88;;
68273;SDS011;55104;47.356;19.448;2022-07-06T15:25:06;6.90;;;2.97;;
68273;SDS011;55104;47.356;19.448;2022-07-06T15:28:09;6.15;;;3.03;;
68273;SDS011;55104;47.356;19.448;2022-07-06T15:31:11;6.18;;;2.55;;
68273;SDS011;55104;47.356;19.448;2022-07-06T15:34:18;6.18;;;2.78;;
68273;SDS011;55104;47.356;19.448;2022-07-06T15:37:20;6.78;;;2.80;;
68273;SDS011;55104;47.356;19.448;2022-07-06T15:40:22;6.53;;;2.30;;
68273;SDS011;55104;47.356;19.448;2022-07-06T15:43:26;5.57;;;2.00;;
68273;SDS011;55104;47.356;19.448;2022-07-06T15:46:31;5.25;;;1.98;;
68273;SDS011;55104;47.356;19.448;2022-07-06T15:49:33;6.18;;;2.33;;
68273;SDS011;55104;47.356;19.448;2022-07-06T15:52:35;5.40;;;2.47;;
68273;SDS011;55104;47.356;19.448;2022-07-06T15:55:38;6.50;;;2.40;;
68273;SDS011;55104;47.356;19.448;2022-07-06T15:58:40;4.95;;;1.90;;
68273;SDS011;55104;47.356;19.448;2022-07-06T16:01:43;5.07;;;1.98;;
68273;SDS011;55104;47.356;19.448;2022-07-06T16:04:45;4.50;;;1.50;;
68273;SDS011;55104;47.356;19.448;2022-07-06T16:07:47;4.80;;;1.60;;
68273;SDS011;55104;47.356;19.448;2022-07-06T16:11:10;7.10;;;1.50;;
68273;SDS011;55104;47.356;19.448;2022-07-06T16:14:12;4.38;;;1.45;;
68273;SDS011;55104;47.356;19.448;2022-07-06T16:17:14;6.07;;;2.65;;
68273;SDS011;55104;47.356;19.448;2022-07-06T16:20:17;3.95;;;1.30;;
68273;SDS011;55104;47.356;19.448;2022-07-06T16:23:20;3.85;;;1.40;;
68273;SDS011;55104;47.356;19.448;2022-07-06T16:26:22;7.63;;;1.40;;
68273;SDS011;55104;47.356;19.448;2022-07-06T16:29:24;5.65;;;1.50;;
68273;SDS011;55104;47.356;19.448;2022-07-06T16:32:26;4.82;;;1.40;;
68273;SDS011;55104;47.356;19.448;2022-07-06T16:35:30;5.55;;;1.80;;
68273;SDS011;55104;47.356;19.448;2022-07-06T16:38:33;4.55;;;1.40;;
68273;SDS011;55104;47.356;19.448;2022-07-06T16:41:35;3.10;;;1.20;;
68273;SDS011;55104;47.356;19.448;2022-07-06T16:44:37;3.70;;;1.15;;
68273;SDS011;55104;47.356;19.448;2022-07-06T16:47:39;5.95;;;1.35;;
68273;SDS011;55104;47.356;19.448;2022-07-06T16:50:41;6.30;;;1.40;;
68273;SDS011;55104;47.356;19.448;2022-07-06T16:53:43;7.55;;;1.58;;
68273;SDS011;55104;47.356;19.448;2022-07-06T16:56:45;3.13;;;1.53;;
68273;SDS011;55104;47.356;19.448;2022-07-06T16:59:47;4.03;;;1.27;;
68273;SDS011;55104;47.356;19.448;2022-07-06T17:02:49;5.78;;;1.75;;
68273;SDS011;55104;47.356;19.448;2022-07-06T17:05:51;4.20;;;1.50;;
68273;SDS011;55104;47.356;19.448;2022-07-06T17:08:54;6.55;;;1.52;;
68273;SDS011;55104;47.356;19.448;2022-07-06T17:11:56;5.03;;;1.37;;
68273;SDS011;55104;47.356;19.448;2022-07-06T17:14:59;5.47;;;1.60;;
68273;SDS011;55104;47.356;19.448;2022-07-06T17:18:02;4.05;;;1.60;;
68273;SDS011;55104;47.356;19.448;2022-07-06T17:21:04;3.63;;;1.30;;
68273;SDS011;55104;47.356;19.448;2022-07-06T17:24:06;4.13;;;1.40;;
68273;SDS011;55104;47.356;19.448;2022-07-06T17:27:09;4.77;;;1.70;;
68273;SDS011;55104;47.356;19.448;2022-07-06T17:30:11;11.82;;;1.98;;
68273;SDS011;55104;47.356;19.448;2022-07-06T17:33:14;6.20;;;2.13;;
68273;SDS011;55104;47.356;19.448;2022-07-06T17:36:16;5.45;;;1.80;;
68273;SDS011;55104;47.356;19.448;2022-07-06T17:39:18;5.90;;;1.92;;
68273;SDS011;55104;47.356;19.448;2022-07-06T17:42:21;6.60;;;1.73;;
68273;SDS011;55104;47.356;19.448;2022-07-06T17:45:25;4.68;;;1.50;;
68273;SDS011;55104;47.356;19.448;2022-07-06T17:48:27;4.57;;;1.60;;
68273;SDS011;55104;47.356;19.448;2022-07-06T17:51:29;6.35;;;2.03;;
68273;SDS011;55104;47.356;19.448;2022-07-06T17:54:31;5.65;;;1.85;;
68273;SDS011;55104;47.356;19.448;2022-07-06T17:57:33;5.10;;;1.97;;
68273;SDS011;55104;47.356;19.448;2022-07-06T18:00:35;5.00;;;1.50;;
68273;SDS011;55104;47.356;19.448;2022-07-06T18:03:37;6.30;;;1.70;;
68273;SDS011;55104;47.356;19.448;2022-07-06T18:06:40;8.98;;;1.80;;
68273;SDS011;55104;47.356;19.448;2022-07-06T18:09:42;7.32;;;1.77;;
68273;SDS011;55104;47.356;19.448;2022-07-06T18:12:45;5.30;;;1.60;;